This is the latest recevied weather packets stored in our database for station/object LZ3DJ-10. If no packets are shown the sender has not sent any weather packets the latest 10 day(s).
| Time | Temp. | Humidity | Pressure | Rain* | Wind** | Luminosity | Snow |
|---|---|---|---|---|---|---|---|
| 1787893206 | 18.33° C | 74% | 1015.7 hPa | 0 mm | 0 m/s | - | - |
| 1787892306 | 17.78° C | 73% | 1015.7 hPa | 0 mm | 0 m/s | - | - |
| 1787891406 | 17.78° C | 74% | 1015.6 hPa | 0 mm | 0 m/s | - | - |
| 1787890505 | 17.78° C | 74% | 1015.5 hPa | 0 mm | 0 m/s | - | - |
| 1787889606 | 17.22° C | 75% | 1015.4 hPa | 0 mm | 0 m/s | - | - |
| 1787888705 | 17.78° C | 72% | 1015.2 hPa | 0 mm | 0 m/s | - | - |
| 1787887806 | 17.78° C | 73% | 1015.4 hPa | 0 mm | 0 m/s | - | - |
| 1787886905 | 18.33° C | 70% | 1015.2 hPa | 0 mm | 0 m/s | - | - |
| 1787886006 | 18.33° C | 69% | 1015.3 hPa | 0 mm | 0 m/s | - | - |
| 1787885106 | 18.33° C | 71% | 1015.4 hPa | 0 mm | 0 m/s | - | - |
| 1787884206 | 18.33° C | 73% | 1015.4 hPa | 0 mm | 0 m/s | - | - |
| 1787883306 | 18.33° C | 72% | 1015.3 hPa | 0 mm | 0 m/s | - | - |
| 1787882405 | 18.89° C | 68% | 1015.1 hPa | 0 mm | 0 m/s | - | - |
| 1787881505 | 18.89° C | 66% | 1015.1 hPa | 0 mm | 0 m/s | - | - |
| 1787880605 | 18.33° C | 71% | 1015.2 hPa | 0 mm | 0 m/s | - | - |
| 1787879706 | 18.89° C | 69% | 1015 hPa | 0 mm | 0 m/s | - | - |
| 1787878806 | 19.44° C | 68% | 1015.1 hPa | 0 mm | 0 m/s | - | - |
| 1787877906 | 19.44° C | 66% | 1015.1 hPa | 0 mm | 0 m/s | - | - |
| 1787877005 | 19.44° C | 65% | 1015.2 hPa | 0 mm | 0 m/s | - | - |
| 1787876106 | 19.44° C | 66% | 1015.2 hPa | 0 mm | 0 m/s | - | - |
| 1787875205 | 20° C | 64% | 1015.1 hPa | 0 mm | 0 m/s | - | - |
| 1787874306 | 19.44° C | 67% | 1015.2 hPa | 0 mm | 0 m/s | - | - |
| 1787873405 | 18.89° C | 69% | 1015.3 hPa | 0 mm | 0 m/s | - | - |
| 1787872506 | 20° C | 66% | 1014.9 hPa | 0 mm | 0 m/s | - | - |
| 1787871605 | 20° C | 67% | 1015 hPa | 0 mm | 0 m/s | - | - |
* Rain latest hour (hover to see other rain measurements)
** Current wind speed in m/s (hover to see current wind gust speed)